Time;durP1;ratioP1;P1;durP2;ratioP2;P2;SDS_P1;SDS_P2;PMS_P1;PMS_P2;Temp;Humidity;BMP_temperature;BMP_pressure;BME280_temperature;BME280_humidity;BME280_pressure;Samples;Min_cycle;Max_cycle;Signal;HPM_P1;HPM_P2
2022/02/21 00:02:11;;;;;;;17.93;17.03;;;;;;;8.61;75.44;95672.03;5074132;28;20256;-63
2022/02/21 00:04:37;;;;;;;17.67;16.63;;;;;;;8.64;75.54;95653.25;5074345;28;20184;-63
2022/02/21 00:07:03;;;;;;;17.63;16.63;;;;;;;8.62;74.85;95657.94;5074127;28;20638;-63
2022/02/21 00:09:29;;;;;;;19.07;18.07;;;;;;;8.66;74.98;95638.13;5074486;28;20218;-63
2022/02/21 00:11:54;;;;;;;17.97;17.00;;;;;;;8.69;74.51;95632.44;5074472;28;20574;-63
2022/02/21 00:14:21;;;;;;;16.23;15.23;;;;;;;8.78;73.93;95625.75;5074490;28;20185;-63
2022/02/21 00:16:46;;;;;;;16.77;15.87;;;;;;;8.82;73.62;95623.44;5074083;28;20177;-63
2022/02/21 00:19:12;;;;;;;16.57;15.77;;;;;;;8.76;73.75;95618.16;5073788;28;20173;-63
2022/02/21 00:21:38;;;;;;;18.13;17.13;;;;;;;8.88;73.17;95614.63;5074352;28;20509;-63
2022/02/21 00:24:04;;;;;;;19.30;18.33;;;;;;;8.89;73.31;95614.38;5072911;28;20573;-63
2022/02/21 00:26:29;;;;;;;20.50;19.43;;;;;;;8.90;72.58;95600.28;5074139;28;20196;-63
2022/02/21 00:28:55;;;;;;;19.77;18.40;;;;;;;8.92;72.26;95574.69;5072714;28;20621;-64
2022/02/21 00:31:20;;;;;;;20.23;19.13;;;;;;;8.90;72.21;95563.72;5057620;28;20300;-63
2022/02/21 00:33:46;;;;;;;20.17;18.97;;;;;;;8.94;72.67;95562.16;5074183;28;20622;-63
2022/02/21 00:36:11;;;;;;;21.83;20.43;;;;;;;8.94;72.41;95564.78;5073737;28;20169;-63
2022/02/21 00:38:37;;;;;;;23.10;21.87;;;;;;;8.93;72.58;95551.97;5073936;28;20622;-63
2022/02/21 00:41:03;;;;;;;23.10;21.50;;;;;;;8.97;72.08;95553.81;5073218;28;20660;-63
2022/02/21 00:43:28;;;;;;;20.97;19.57;;;;;;;8.99;72.05;95541.31;5074008;28;20181;-63
2022/02/21 00:45:53;;;;;;;22.10;20.83;;;;;;;8.97;72.23;95555.69;5073768;28;20204;-63
2022/02/21 00:48:19;;;;;;;45.37;42.07;;;;;;;8.86;72.95;95546.16;5073148;28;20181;-63
2022/02/21 00:50:44;;;;;;;17.33;16.33;;;;;;;8.91;73.74;95535.75;5072705;28;20212;-63
2022/02/21 00:53:10;;;;;;;24.23;22.77;;;;;;;8.83;75.05;95547.44;5073215;28;20185;-64
2022/02/21 00:55:35;;;;;;;22.03;20.83;;;;;;;8.81;75.85;95544.25;5073559;28;20173;-64
2022/02/21 00:58:04;;;;;;;30.77;28.77;;;;;;;8.71;77.05;95539.72;5073265;28;20633;-63
2022/02/21 01:00:31;;;;;;;28.43;26.83;;;;;;;8.67;77.68;95540.47;5071247;28;20181;-63
2022/02/21 01:02:57;;;;;;;27.00;25.27;;;;;;;8.66;77.71;95521.38;5073342;28;20634;-63
2022/02/21 01:05:22;;;;;;;21.47;20.23;;;;;;;8.70;77.97;95526.91;5073191;28;20185;-63
2022/02/21 01:07:48;;;;;;;30.63;28.67;;;;;;;8.60;78.50;95495.47;5073197;28;20188;-64
2022/02/21 01:10:13;;;;;;;17.40;16.20;;;;;;;8.58;78.93;95468.81;5072644;28;20173;-64
2022/02/21 01:12:39;;;;;;;16.87;15.90;;;;;;;8.57;78.99;95496.75;5073137;28;20211;-64
2022/02/21 01:15:05;;;;;;;18.67;17.70;;;;;;;8.49;79.55;95499.00;5072977;28;20185;-63
2022/02/21 01:17:31;;;;;;;16.73;15.83;;;;;;;8.53;80.07;95497.47;5072491;28;20270;-64
2022/02/21 01:19:58;;;;;;;16.77;15.83;;;;;;;8.52;80.50;95488.06;5072554;28;20181;-63
2022/02/21 01:22:24;;;;;;;13.73;12.73;;;;;;;8.44;80.97;95467.59;5072512;28;20221;-63
2022/02/21 01:24:50;;;;;;;12.70;12.10;;;;;;;8.42;80.77;95462.63;5073195;28;20181;-63
2022/02/21 01:27:16;;;;;;;12.43;11.73;;;;;;;8.42;81.44;95461.84;5073033;28;20268;-63
2022/02/21 01:29:42;;;;;;;17.40;16.10;;;;;;;8.41;81.56;95439.41;5072812;28;20169;-63
2022/02/21 01:32:08;;;;;;;11.60;10.80;;;;;;;8.41;81.38;95429.75;5072568;28;20193;-63
2022/02/21 01:34:34;;;;;;;17.40;16.43;;;;;;;8.28;82.14;95428.28;5070815;28;20173;-63
2022/02/21 01:36:59;;;;;;;12.10;11.17;;;;;;;8.19;82.01;95427.09;5071705;28;20187;-63
2022/02/21 01:39:25;;;;;;;14.03;13.07;;;;;;;8.18;82.32;95424.75;5072128;28;20185;-64
2022/02/21 01:41:50;;;;;;;12.50;11.60;;;;;;;8.19;82.35;95410.69;5072598;28;20197;-63
2022/02/21 01:44:16;;;;;;;15.20;14.27;;;;;;;8.12;82.77;95384.78;5072603;28;20173;-63
2022/02/21 01:46:43;;;;;;;24.90;23.23;;;;;;;8.12;82.45;95399.66;5072906;28;20181;-63
2022/02/21 01:49:10;;;;;;;14.53;13.67;;;;;;;8.18;82.60;95393.44;5072795;28;20185;-63
2022/02/21 01:51:36;;;;;;;11.40;10.77;;;;;;;8.21;82.96;95388.50;5072206;28;20545;-63
2022/02/21 01:54:06;;;;;;;15.23;14.43;;;;;;;8.21;82.34;95390.34;5072752;28;20231;-63
2022/02/21 01:56:31;;;;;;;11.40;10.77;;;;;;;8.26;82.02;95393.78;5072894;28;20189;-63
2022/02/21 01:58:57;;;;;;;11.63;11.00;;;;;;;8.22;82.37;95374.44;5072496;28;20181;-63
2022/02/21 02:01:22;;;;;;;13.80;12.93;;;;;;;8.24;81.75;95388.03;5072254;28;20197;-63
2022/02/21 02:03:48;;;;;;;11.20;10.60;;;;;;;8.23;81.80;95378.63;5072504;28;20626;-63
2022/02/21 02:06:13;;;;;;;12.03;11.33;;;;;;;8.26;81.66;95380.72;5072456;28;20336;-63
2022/02/21 02:08:39;;;;;;;19.43;18.23;;;;;;;8.24;81.72;95376.81;5072511;28;20185;-63
2022/02/21 02:11:04;;;;;;;11.90;11.20;;;;;;;8.22;81.49;95371.81;5073751;28;20236;-63
2022/02/21 02:13:30;;;;;;;11.47;10.77;;;;;;;8.18;81.61;95365.53;5076597;28;20319;-63
2022/02/21 02:15:55;;;;;;;11.67;10.97;;;;;;;8.22;81.36;95345.72;5076725;28;20177;-64
2022/02/21 02:18:22;;;;;;;18.07;17.00;;;;;;;8.11;80.95;95349.28;5075683;28;20633;-63
2022/02/21 02:20:48;;;;;;;15.20;14.27;;;;;;;8.08;81.38;95339.31;5075402;28;20188;-63
2022/02/21 02:23:14;;;;;;;10.07;9.57;;;;;;;8.15;80.99;95331.28;5076492;28;20524;-63
2022/02/21 02:25:39;;;;;;;12.73;11.97;;;;;;;8.13;81.12;95326.34;5076265;28;20181;-63
2022/02/21 02:28:06;;;;;;;12.67;11.87;;;;;;;8.09;81.03;95320.00;5076586;28;20177;-63
2022/02/21 02:30:32;;;;;;;14.67;13.47;;;;;;;8.09;81.49;95303.56;5076172;28;20200;-63
2022/02/21 02:32:58;;;;;;;12.07;11.47;;;;;;;8.15;81.07;95279.88;5075786;28;20200;-64
2022/02/21 02:35:27;;;;;;;10.77;10.17;;;;;;;8.13;81.23;95291.63;5076106;28;20177;-63
2022/02/21 02:37:52;;;;;;;77.20;71.10;;;;;;;8.09;81.42;95280.09;5075959;28;20573;-63
2022/02/21 02:40:18;;;;;;;14.37;13.57;;;;;;;8.11;82.52;95283.25;5075540;28;20192;-64
2022/02/21 02:42:43;;;;;;;10.63;10.13;;;;;;;8.08;83.54;95265.50;5058659;28;20271;-63
2022/02/21 02:45:08;;;;;;;9.57;9.10;;;;;;;8.09;84.33;95261.81;5075799;28;20173;-63
2022/02/21 02:47:34;;;;;;;8.77;8.37;;;;;;;8.10;84.65;95277.25;5075850;28;20273;-63
2022/02/21 02:49:59;;;;;;;11.23;10.57;;;;;;;8.07;84.70;95263.91;5075660;28;20231;-65
2022/02/21 02:52:25;;;;;;;8.57;8.10;;;;;;;8.06;85.97;95275.38;5074442;28;20649;-64
2022/02/21 02:54:50;;;;;;;27.20;25.30;;;;;;;7.99;85.36;95259.13;5075816;28;20264;-64
2022/02/21 02:57:15;;;;;;;7.17;6.67;;;;;;;8.00;85.67;95263.31;5075724;28;20203;-63
2022/02/21 02:59:41;;;;;;;8.93;8.53;;;;;;;8.07;85.30;95243.03;5075585;28;20261;-63
2022/02/21 03:02:06;;;;;;;7.33;6.93;;;;;;;8.08;84.43;95257.66;5075851;28;20185;-63
2022/02/21 03:04:31;;;;;;;7.37;6.93;;;;;;;8.12;84.99;95248.28;5075118;28;20173;-64
2022/02/21 03:06:58;;;;;;;13.50;12.50;;;;;;;8.12;83.67;95217.78;5074973;28;20204;-63
2022/02/21 03:09:25;;;;;;;7.20;6.80;;;;;;;8.19;83.57;95225.41;5075510;28;20177;-64
2022/02/21 03:11:50;;;;;;;9.93;9.33;;;;;;;8.19;82.53;95207.88;5075464;28;20204;-63
2022/02/21 03:14:16;;;;;;;12.20;11.40;;;;;;;8.20;81.64;95217.28;5075296;28;20189;-64
2022/02/21 03:16:41;;;;;;;10.37;9.70;;;;;;;8.29;81.05;95209.81;5074984;28;20182;-64
2022/02/21 03:19:07;;;;;;;10.10;9.60;;;;;;;8.38;80.90;95215.38;5063641;28;20169;-64
2022/02/21 03:21:33;;;;;;;11.13;10.50;;;;;;;8.35;81.24;95198.41;5075344;28;20181;-63
2022/02/21 03:23:58;;;;;;;10.73;10.13;;;;;;;8.26;80.62;95190.19;5073091;28;20192;-63
2022/02/21 03:26:23;;;;;;;18.13;17.13;;;;;;;8.26;80.94;95182.38;5075004;28;20181;-63
2022/02/21 03:28:49;;;;;;;9.40;9.00;;;;;;;8.23;81.04;95208.19;5075577;28;20219;-64
2022/02/21 03:31:14;;;;;;;18.57;17.37;;;;;;;8.24;81.11;95231.44;5075165;28;20279;-63
2022/02/21 03:33:40;;;;;;;9.33;8.83;;;;;;;8.28;81.15;95250.78;5075307;28;20180;-63
2022/02/21 03:36:05;;;;;;;9.17;8.47;;;;;;;8.29;81.55;95247.13;5074737;28;20189;-63
2022/02/21 03:38:31;;;;;;;10.27;9.73;;;;;;;8.30;82.59;95263.63;5075035;28;20173;-63
2022/02/21 03:40:56;;;;;;;12.67;11.87;;;;;;;8.27;84.17;95313.66;5074853;28;20177;-64
2022/02/21 03:43:21;;;;;;;8.53;8.03;;;;;;;8.16;86.02;95388.47;5074735;28;20216;-63
2022/02/21 03:45:47;;;;;;;55.90;42.50;;;;;;;7.40;87.51;95402.44;5075217;28;20264;-65
2022/02/21 03:48:13;;;;;;;0.60;0.60;;;;;;;6.15;98.04;95441.78;5074177;28;20239;-64
2022/02/21 03:50:39;;;;;;;6.03;5.57;;;;;;;4.43;97.37;95438.75;5073547;28;20284;-64
2022/02/21 03:53:04;;;;;;;3.40;3.23;;;;;;;3.08;100.00;95485.69;5074623;28;20268;-66
2022/02/21 03:55:29;;;;;;;2.50;2.30;;;;;;;2.50;100.00;95493.66;5073808;28;20189;-66
2022/02/21 03:57:55;;;;;;;3.67;3.47;;;;;;;2.36;100.00;95492.94;5074344;28;20261;-64
2022/02/21 04:00:21;;;;;;;5.23;5.03;;;;;;;2.44;100.00;95510.81;5074462;28;20252;-63
2022/02/21 04:02:46;;;;;;;4.37;4.17;;;;;;;2.53;100.00;95528.66;5074668;28;20261;-65
2022/02/21 04:05:14;;;;;;;3.20;3.00;;;;;;;2.44;100.00;95547.00;5074480;28;20271;-64
2022/02/21 04:07:42;;;;;;;4.10;1.63;;;;;;;2.57;100.00;95574.56;5074196;28;20259;-65
2022/02/21 04:10:15;;;;;;;3.70;1.70;;;;;;;2.59;100.00;95569.19;5073136;28;20527;-65
2022/02/21 04:12:41;;;;;;;2.10;2.10;;;;;;;2.72;100.00;95585.47;5074640;28;20236;-65
2022/02/21 04:15:07;;;;;;;1.83;1.70;;;;;;;2.64;100.00;95596.03;5074173;28;20634;-64
2022/02/21 04:17:47;;;;;;;1.30;1.20;;;;;;;2.68;100.00;95589.44;5074060;28;20217;-64
2022/02/21 04:20:16;;;;;;;6.60;6.30;;;;;;;2.56;100.00;95580.75;5073323;28;20234;-64
2022/02/21 04:22:42;;;;;;;9.23;8.83;;;;;;;2.25;100.00;95583.25;5073701;28;20188;-64
2022/02/21 04:25:10;;;;;;;9.27;8.77;;;;;;;2.36;100.00;95582.63;5073927;28;20205;-64
2022/02/21 04:27:40;;;;;;;7.30;6.97;;;;;;;2.22;100.00;95545.69;5073987;28;20682;-65
2022/02/21 04:30:05;;;;;;;6.43;6.13;;;;;;;2.20;100.00;95547.69;5074090;28;20201;-64
2022/02/21 04:32:31;;;;;;;3.40;3.20;;;;;;;2.28;100.00;95557.00;5073989;28;20228;-64
2022/02/21 04:34:56;;;;;;;3.90;2.10;;;;;;;2.21;100.00;95541.53;5073415;28;20200;-64
2022/02/21 04:37:21;;;;;;;2.27;2.17;;;;;;;2.00;100.00;95532.28;5074088;28;20221;-64
2022/02/21 04:39:47;;;;;;;2.10;1.80;;;;;;;2.21;100.00;95512.31;5073002;28;20226;-66
2022/02/21 04:42:13;;;;;;;3.73;2.20;;;;;;;2.23;100.00;95505.16;5073253;28;20181;-64
2022/02/21 04:44:38;;;;;;;5.40;2.27;;;;;;;2.15;100.00;95480.31;5074207;28;20605;-64
2022/02/21 04:47:04;;;;;;;3.87;2.43;;;;;;;2.25;100.00;95441.09;5073582;28;20217;-64
2022/02/21 04:49:30;;;;;;;2.30;2.10;;;;;;;2.27;100.00;95426.97;5073546;28;20211;-64
2022/02/21 04:51:57;;;;;;;2.63;2.43;;;;;;;2.27;100.00;95452.03;5073050;28;20211;-64
2022/02/21 04:54:23;;;;;;;3.23;2.17;;;;;;;2.28;100.00;95448.44;5073585;28;20220;-64
2022/02/21 04:56:48;;;;;;;2.73;2.50;;;;;;;2.30;100.00;95454.97;5073530;28;20646;-64
2022/02/21 04:59:13;;;;;;;2.63;2.07;;;;;;;2.37;100.00;95455.75;5073385;28;20189;-64
2022/02/21 05:01:39;;;;;;;4.43;2.20;;;;;;;2.38;100.00;95470.25;5073476;28;20260;-64
2022/02/21 05:04:04;;;;;;;2.23;2.07;;;;;;;2.49;100.00;95484.31;5072766;28;20180;-63
2022/02/21 05:06:29;;;;;;;3.67;2.17;;;;;;;2.45;100.00;95506.44;5071909;28;20181;-64
2022/02/21 05:08:55;;;;;;;2.47;2.13;;;;;;;2.50;100.00;95499.63;5072964;28;20207;-64
2022/02/21 05:11:20;;;;;;;5.37;2.80;;;;;;;2.67;100.00;95489.59;5072926;28;20689;-64
2022/02/21 05:13:45;;;;;;;2.40;2.20;;;;;;;2.61;100.00;95497.38;5072861;28;20526;-63
2022/02/21 05:16:11;;;;;;;2.57;2.17;;;;;;;2.71;99.40;95514.03;5073400;28;20235;-63
2022/02/21 05:18:36;;;;;;;4.80;2.33;;;;;;;2.80;98.02;95524.91;5072685;28;20216;-64
2022/02/21 05:21:02;;;;;;;5.70;2.50;;;;;;;2.83;97.53;95542.59;5072630;28;20185;-64
2022/02/21 05:23:27;;;;;;;5.40;2.50;;;;;;;2.88;97.11;95569.44;5072321;28;20516;-64
2022/02/21 05:25:52;;;;;;;4.70;2.30;;;;;;;2.93;96.55;95563.63;5071869;28;20863;-64
2022/02/21 05:28:18;;;;;;;6.50;2.70;;;;;;;2.93;96.23;95563.63;5072746;28;20189;-63
2022/02/21 05:30:43;;;;;;;6.00;2.70;;;;;;;2.99;96.02;95578.34;5073033;28;20201;-64
2022/02/21 05:33:08;;;;;;;5.50;2.80;;;;;;;2.97;96.21;95579.53;5073059;28;20178;-63
2022/02/21 05:35:34;;;;;;;4.90;2.33;;;;;;;3.15;95.33;95577.03;5072711;28;20272;-63
2022/02/21 05:37:59;;;;;;;4.57;2.03;;;;;;;3.12;93.83;95565.28;5072546;28;20291;-64
2022/02/21 05:40:25;;;;;;;4.67;2.00;;;;;;;3.21;95.68;95571.81;5072415;28;20184;-64
2022/02/21 05:42:50;;;;;;;6.10;2.33;;;;;;;3.25;94.57;95588.50;5072949;28;20638;-63
2022/02/21 05:45:15;;;;;;;6.23;2.10;;;;;;;3.31;92.68;95585.06;5072355;28;20192;-64
2022/02/21 05:47:41;;;;;;;8.10;2.17;;;;;;;3.34;92.70;95569.09;5072375;28;20181;-63
2022/02/21 05:50:06;;;;;;;6.60;2.30;;;;;;;3.41;92.52;95568.25;5072491;28;20178;-63
2022/02/21 05:52:32;;;;;;;6.50;2.00;;;;;;;3.47;91.88;95590.72;5072740;28;20189;-64
2022/02/21 05:54:57;;;;;;;5.27;2.57;;;;;;;3.40;90.12;95611.50;5072417;28;20189;-64
2022/02/21 05:57:22;;;;;;;6.00;2.40;;;;;;;3.52;90.29;95615.00;5072294;28;20200;-64
2022/02/21 05:59:48;;;;;;;5.43;2.23;;;;;;;3.50;88.26;95603.28;5072714;28;20190;-64
2022/02/21 06:02:13;;;;;;;3.80;1.80;;;;;;;3.47;87.66;95590.72;5072603;28;20267;-63
2022/02/21 06:04:39;;;;;;;7.73;1.80;;;;;;;3.44;88.42;95573.03;5072639;28;20223;-64
2022/02/21 06:07:04;;;;;;;5.20;1.70;;;;;;;3.50;86.65;95590.31;5071878;28;20173;-63
2022/02/21 06:09:29;;;;;;;11.97;2.07;;;;;;;3.51;87.54;95616.00;5071396;28;20268;-64
2022/02/21 06:11:55;;;;;;;3.77;1.70;;;;;;;3.55;86.75;95606.81;5094867;28;20189;-64
2022/02/21 06:14:20;;;;;;;5.90;2.17;;;;;;;3.51;85.19;95623.00;5072473;28;20570;-63
2022/02/21 06:16:46;;;;;;;8.17;2.50;;;;;;;3.52;85.78;95621.97;5071572;28;20169;-63
2022/02/21 06:19:11;;;;;;;6.87;2.73;;;;;;;3.56;84.02;95634.31;5071578;28;20185;-64
2022/02/21 06:21:37;;;;;;;6.77;2.53;;;;;;;3.60;82.13;95619.13;5071536;28;20185;-64
2022/02/21 06:24:02;;;;;;;7.50;1.87;;;;;;;3.58;80.46;95601.19;5072060;28;20188;-63
2022/02/21 06:26:27;;;;;;;3.87;1.60;;;;;;;3.59;80.51;95618.34;5072078;28;20230;-63
2022/02/21 06:28:53;;;;;;;6.17;1.73;;;;;;;3.58;80.15;95629.69;5072430;28;20181;-63
2022/02/21 06:31:18;;;;;;;8.50;1.97;;;;;;;3.65;81.72;95648.56;5071876;28;20279;-63
2022/02/21 06:33:44;;;;;;;9.33;2.40;;;;;;;3.69;81.27;95641.97;5070593;28;20180;-63
2022/02/21 06:36:09;;;;;;;3.63;1.80;;;;;;;3.71;82.42;95632.19;5071518;28;20173;-64
2022/02/21 06:38:36;;;;;;;7.80;1.70;;;;;;;3.70;81.72;95633.19;5071879;28;20310;-64
2022/02/21 06:41:02;;;;;;;5.20;1.90;;;;;;;3.80;81.97;95644.84;5070827;28;20181;-64
2022/02/21 06:43:27;;;;;;;7.27;1.70;;;;;;;3.73;82.96;95660.47;5071881;28;20177;-64
2022/02/21 06:45:53;;;;;;;3.60;2.00;;;;;;;3.81;82.04;95659.41;5071687;28;20169;-63
2022/02/21 06:48:18;;;;;;;7.20;1.93;;;;;;;3.81;82.02;95685.31;5072053;28;20294;-63
2022/02/21 06:50:44;;;;;;;3.77;1.80;;;;;;;3.80;82.08;95694.09;5071800;28;20224;-63
2022/02/21 06:53:09;;;;;;;4.60;2.33;;;;;;;3.84;81.97;95697.88;5055362;28;20182;-64
2022/02/21 06:55:34;;;;;;;5.97;2.00;;;;;;;3.73;81.92;95692.34;5071605;28;20185;-62
2022/02/21 06:58:00;;;;;;;3.57;1.40;;;;;;;3.82;81.58;95699.88;5074078;28;20611;-62
2022/02/21 07:00:25;;;;;;;7.80;1.70;;;;;;;3.92;81.77;95697.59;5075305;28;20191;-62
2022/02/21 07:02:51;;;;;;;3.23;1.70;;;;;;;3.93;81.22;95694.81;5075266;28;20193;-62
2022/02/21 07:05:18;;;;;;;6.53;1.83;;;;;;;3.83;81.12;95709.25;5075390;28;20169;-62
2022/02/21 07:07:43;;;;;;;8.77;2.10;;;;;;;4.37;89.40;95703.38;5075375;28;20205;-66
2022/02/21 07:10:10;;;;;;;6.07;2.07;;;;;;;4.85;77.28;95711.25;5074147;28;20224;-65
2022/02/21 07:12:37;;;;;;;5.43;1.67;;;;;;;5.19;76.32;95722.84;5074384;28;20197;-63
2022/02/21 07:15:04;;;;;;;4.90;1.80;;;;;;;4.11;72.39;95718.19;5074455;28;20173;-65
2022/02/21 07:17:35;;;;;;;6.47;2.20;;;;;;;3.75;73.11;95715.47;5082228;28;20221;-67
2022/02/21 07:20:01;;;;;;;6.17;1.90;;;;;;;3.60;74.05;95720.94;5095053;28;20172;-67
2022/02/21 07:22:26;;;;;;;2.57;1.40;;;;;;;3.64;72.82;95731.69;5093962;28;20626;-67
2022/02/21 07:24:52;;;;;;;4.33;1.60;;;;;;;3.74;73.02;95732.81;5095252;28;20181;-67
2022/02/21 07:27:17;;;;;;;7.40;1.60;;;;;;;3.85;71.89;95733.13;5093756;28;20226;-67
2022/02/21 07:29:42;;;;;;;3.40;1.63;;;;;;;3.96;71.24;95748.00;5095056;28;20175;-67
2022/02/21 07:32:08;;;;;;;4.70;1.80;;;;;;;4.08;71.03;95730.75;5095054;28;20291;-67
2022/02/21 07:34:33;;;;;;;7.30;1.70;;;;;;;4.17;70.14;95732.09;5095793;28;20181;-66
2022/02/21 07:37:00;;;;;;;7.23;2.17;;;;;;;4.33;69.32;95716.00;5094140;28;20644;-65
2022/02/21 07:39:30;;;;;;;5.50;1.73;;;;;;;4.38;69.32;95712.75;5094982;28;20621;-66
2022/02/21 07:41:56;;;;;;;7.77;2.30;;;;;;;4.54;69.84;95740.75;5095356;28;20177;-67
2022/02/21 07:44:21;;;;;;;7.87;2.23;;;;;;;4.45;68.97;95739.44;5095126;28;20223;-66
2022/02/21 07:46:46;;;;;;;8.80;2.47;;;;;;;4.57;68.91;95748.09;5076340;28;20631;-66
2022/02/21 07:49:12;;;;;;;6.77;1.80;;;;;;;4.37;68.38;95745.69;5093326;28;20316;-67
2022/02/21 07:51:37;;;;;;;3.97;2.13;;;;;;;4.55;67.52;95752.72;5094829;28;20195;-65
2022/02/21 07:54:03;;;;;;;6.93;2.30;;;;;;;4.50;67.83;95758.56;5076944;28;20543;-64
2022/02/21 07:56:28;;;;;;;6.77;2.27;;;;;;;4.66;67.32;95759.78;5094546;28;20535;-65
2022/02/21 07:58:54;;;;;;;9.63;2.03;;;;;;;4.62;66.80;95768.22;5095112;28;20227;-66
2022/02/21 08:01:19;;;;;;;9.83;2.07;;;;;;;4.82;65.68;95746.25;5094528;28;20192;-63
2022/02/21 08:03:44;;;;;;;5.90;1.70;;;;;;;4.82;66.08;95785.19;5093678;28;20257;-64
2022/02/21 08:06:10;;;;;;;7.83;1.70;;;;;;;5.12;65.41;95794.88;5094390;28;20165;-63
2022/02/21 08:08:36;;;;;;;5.33;2.20;;;;;;;5.17;65.35;95787.22;5093857;28;20191;-64
2022/02/21 08:11:02;;;;;;;9.67;2.00;;;;;;;4.90;65.05;95807.50;5094208;28;20293;-64
2022/02/21 08:13:27;;;;;;;7.50;2.10;;;;;;;5.08;65.88;95810.06;5093652;28;20641;-63
2022/02/21 08:15:52;;;;;;;8.43;2.10;;;;;;;5.15;66.02;95818.59;5094495;28;20367;-63
2022/02/21 08:18:18;;;;;;;7.53;2.00;;;;;;;5.14;66.85;95809.22;5080110;28;20568;-63
2022/02/21 08:20:43;;;;;;;8.10;2.60;;;;;;;4.99;66.59;95819.97;5073793;28;20601;-63
2022/02/21 08:23:09;;;;;;;7.57;2.20;;;;;;;4.96;66.06;95830.75;5073368;28;20219;-63
2022/02/21 08:25:35;;;;;;;7.63;2.30;;;;;;;5.13;66.06;95828.41;5072140;28;20217;-65
2022/02/21 08:28:01;;;;;;;7.00;2.10;;;;;;;5.17;65.28;95819.19;5073539;28;20174;-64
2022/02/21 08:30:26;;;;;;;7.93;2.40;;;;;;;5.26;64.81;95822.28;5073780;28;20180;-63
2022/02/21 08:32:52;;;;;;;9.93;2.40;;;;;;;5.30;64.74;95831.22;5073113;28;20181;-65
2022/02/21 08:35:18;;;;;;;9.30;2.37;;;;;;;5.32;64.99;95837.81;5072852;28;20182;-64
2022/02/21 08:37:44;;;;;;;5.90;1.87;;;;;;;5.75;64.85;95837.69;5073563;28;20181;-64
2022/02/21 08:40:12;;;;;;;11.47;2.50;;;;;;;5.82;63.65;95835.00;5071651;28;20183;-64
2022/02/21 08:42:38;;;;;;;3.77;1.60;;;;;;;5.87;63.42;95850.75;5072499;28;20180;-64
2022/02/21 08:45:08;;;;;;;4.37;1.93;;;;;;;5.86;62.70;95847.34;5071951;28;20173;-64
2022/02/21 08:47:33;;;;;;;7.93;1.90;;;;;;;5.86;62.39;95844.75;5073440;28;20580;-65
2022/02/21 08:49:59;;;;;;;6.27;1.67;;;;;;;5.89;61.66;95851.34;5072806;28;20243;-64
2022/02/21 08:52:24;;;;;;;10.60;2.83;;;;;;;6.07;61.71;95855.72;5072616;28;20227;-64
2022/02/21 08:54:50;;;;;;;5.13;1.90;;;;;;;5.76;62.28;95859.28;5071561;28;20261;-65
2022/02/21 08:57:16;;;;;;;8.37;2.00;;;;;;;5.89;62.32;95856.56;5071723;28;20209;-65
2022/02/21 08:59:43;;;;;;;5.90;2.13;;;;;;;5.98;62.57;95849.22;5072662;28;20601;-65
2022/02/21 09:02:09;;;;;;;10.37;2.27;;;;;;;6.17;62.50;95848.16;5072958;28;20177;-65
2022/02/21 09:04:34;;;;;;;5.70;2.20;;;;;;;5.99;62.43;95848.22;5072382;28;20189;-64
2022/02/21 09:06:59;;;;;;;5.87;2.30;;;;;;;6.23;62.20;95850.69;5072827;28;20231;-64
2022/02/21 09:09:25;;;;;;;7.00;2.00;;;;;;;6.28;61.89;95864.84;5072755;28;20173;-65
2022/02/21 09:11:51;;;;;;;6.70;1.80;;;;;;;6.40;61.75;95861.25;5072339;28;20668;-64
2022/02/21 09:14:17;;;;;;;8.30;1.93;;;;;;;6.36;61.90;95852.28;5072275;28;20179;-64
2022/02/21 09:16:42;;;;;;;3.50;1.73;;;;;;;6.13;62.06;95860.81;5072229;28;20197;-64
2022/02/21 09:19:07;;;;;;;9.63;1.67;;;;;;;6.29;62.26;95875.03;5072681;28;20626;-64
2022/02/21 09:21:33;;;;;;;4.37;1.90;;;;;;;6.38;62.08;95865.88;5070617;28;20185;-64
2022/02/21 09:23:58;;;;;;;4.30;1.60;;;;;;;6.11;62.43;95875.06;5072303;28;20533;-65
2022/02/21 09:26:24;;;;;;;5.70;1.80;;;;;;;6.28;62.34;95872.63;5068085;28;20193;-65
2022/02/21 09:28:49;;;;;;;3.70;1.80;;;;;;;6.15;61.80;95866.59;5072735;28;20212;-64
2022/02/21 09:31:15;;;;;;;6.90;2.30;;;;;;;6.66;62.19;95868.66;5071069;28;20201;-65
2022/02/21 09:33:40;;;;;;;11.00;1.97;;;;;;;6.84;61.01;95859.97;5070658;28;20564;-64
2022/02/21 09:36:06;;;;;;;5.53;2.00;;;;;;;7.09;60.51;95859.72;5071422;28;20173;-65
2022/02/21 09:38:31;;;;;;;6.87;2.27;;;;;;;6.78;60.17;95845.22;5070373;28;20257;-64
2022/02/21 09:40:57;;;;;;;7.20;2.37;;;;;;;6.62;60.72;95854.50;5071238;28;20185;-64
2022/02/21 09:43:26;;;;;;;7.80;1.70;;;;;;;6.48;61.10;95850.50;5072190;28;20622;-64
2022/02/21 09:46:04;;;;;;;5.87;2.03;;;;;;;6.49;61.68;95843.50;5071758;28;20239;-64
2022/02/21 09:48:30;;;;;;;6.63;2.00;;;;;;;6.42;61.29;95829.78;5071441;28;20181;-64
2022/02/21 09:51:00;;;;;;;5.13;1.90;;;;;;;6.34;61.17;95838.72;5072119;28;20212;-64
2022/02/21 09:53:34;;;;;;;5.20;2.00;;;;;;;6.29;60.37;95828.19;5072228;28;20181;-66
2022/02/21 09:55:59;;;;;;;10.03;2.30;;;;;;;6.25;60.73;95827.03;5065024;28;20613;-64
2022/02/21 09:58:25;;;;;;;10.27;1.83;;;;;;;6.32;61.56;95821.72;5071672;28;20184;-64
2022/02/21 10:00:53;;;;;;;6.37;1.90;;;;;;;6.53;62.11;95819.38;5071556;28;20645;-64
2022/02/21 10:03:57;;;;;;;9.60;1.83;;;;;;;6.57;60.42;95820.53;5071728;28;20623;-64
2022/02/21 10:06:29;;;;;;;5.70;2.43;;;;;;;6.84;59.86;95825.31;5025254;28;20179;-65
2022/02/21 10:09:08;;;;;;;8.37;1.97;;;;;;;7.01;58.14;95842.63;5057247;28;20193;-65
2022/02/21 10:11:39;;;;;;;6.67;2.07;;;;;;;7.14;58.12;95846.00;5071958;28;20658;-65
2022/02/21 10:14:13;;;;;;;3.23;1.53;;;;;;;7.10;57.75;95830.03;5072247;28;20196;-64
2022/02/21 10:16:59;;;;;;;6.73;2.27;;;;;;;6.82;58.47;95851.56;5071206;28;20212;-64
2022/02/21 10:19:30;;;;;;;7.80;1.77;;;;;;;6.79;58.25;95856.44;5071224;28;20234;-64
2022/02/21 10:22:05;;;;;;;6.90;2.10;;;;;;;6.61;59.59;95863.31;5071435;28;20265;-64
2022/02/21 10:24:42;;;;;;;6.57;1.70;;;;;;;6.52;58.15;95858.69;5071865;28;20184;-63
2022/02/21 10:27:15;;;;;;;6.57;2.13;;;;;;;6.89;57.61;95820.22;5070236;28;20276;-65
2022/02/21 10:29:50;;;;;;;5.97;1.63;;;;;;;6.54;58.79;95836.59;5071855;28;20181;-65
2022/02/21 10:32:18;;;;;;;7.20;1.90;;;;;;;6.71;58.03;95861.97;5072747;28;20196;-64
2022/02/21 10:34:45;;;;;;;6.57;1.93;;;;;;;6.67;57.54;95852.03;5075898;28;20311;-64
2022/02/21 10:37:12;;;;;;;5.30;1.43;;;;;;;6.49;57.45;95846.88;5075725;28;20177;-64
2022/02/21 10:39:37;;;;;;;5.43;1.73;;;;;;;6.67;56.98;95854.63;5076015;28;20174;-63
2022/02/21 10:42:06;;;;;;;7.93;1.90;;;;;;;6.81;57.07;95857.78;5075390;28;20181;-64
2022/02/21 10:44:35;;;;;;;4.27;1.60;;;;;;;6.75;55.16;95824.03;5075352;28;20266;-63
2022/02/21 10:47:04;;;;;;;6.57;1.60;;;;;;;6.39;56.06;95845.84;5075503;28;20304;-63
2022/02/21 10:49:32;;;;;;;2.07;1.17;;;;;;;6.44;56.49;95853.78;5074737;28;20192;-63
2022/02/21 10:51:58;;;;;;;3.60;1.73;;;;;;;6.52;56.37;95845.66;5074637;28;20197;-63
2022/02/21 10:54:33;;;;;;;4.93;1.43;;;;;;;6.47;55.77;95846.31;5075155;28;20185;-63
2022/02/21 10:56:58;;;;;;;5.70;2.30;;;;;;;6.61;55.10;95847.72;5075651;28;20174;-63
2022/02/21 10:59:28;;;;;;;5.50;1.57;;;;;;;6.54;54.26;95849.63;5074233;28;20606;-63
2022/02/21 11:01:54;;;;;;;3.00;1.63;;;;;;;6.64;54.09;95860.25;5054787;28;20189;-62
2022/02/21 11:04:22;;;;;;;9.40;1.80;;;;;;;6.54;54.26;95854.81;5066025;28;20200;-64
2022/02/21 11:06:48;;;;;;;5.10;1.37;;;;;;;6.72;53.83;95842.72;5075421;28;20260;-63
2022/02/21 11:09:16;;;;;;;2.93;1.43;;;;;;;6.87;53.20;95854.28;5074441;28;20179;-63
2022/02/21 11:11:46;;;;;;;4.67;1.50;;;;;;;7.14;53.09;95849.41;5075105;28;20246;-63
2022/02/21 11:14:18;;;;;;;2.83;1.30;;;;;;;6.95;52.59;95853.97;5074848;28;20166;-63
2022/02/21 11:16:46;;;;;;;6.10;1.93;;;;;;;7.02;52.73;95866.88;5074183;28;20174;-63
2022/02/21 11:19:14;;;;;;;5.40;1.40;;;;;;;7.32;52.13;95858.91;5073688;28;20558;-63
2022/02/21 11:21:41;;;;;;;2.93;1.30;;;;;;;7.34;51.87;95862.09;5074404;28;20260;-63
2022/02/21 11:24:08;;;;;;;3.43;1.37;;;;;;;7.05;53.00;95862.00;5062040;28;20174;-63
2022/02/21 11:26:37;;;;;;;4.57;1.73;;;;;;;6.99;53.06;95847.28;5055459;28;20175;-63
2022/02/21 11:29:20;;;;;;;3.87;1.27;;;;;;;6.88;54.41;95849.88;5055223;28;20181;-63
2022/02/21 11:31:46;;;;;;;3.77;1.40;;;;;;;6.82;54.92;95843.75;5053946;28;20546;-64
2022/02/21 11:34:11;;;;;;;4.00;1.40;;;;;;;6.75;55.47;95855.28;5054690;28;20174;-64